createdAt,value
2019-01-22T00:00:05.348Z,37.60
2019-01-22T00:01:05.352Z,41.40
2019-01-22T00:02:05.361Z,38.30
2019-01-22T00:03:05.367Z,38.60
2019-01-22T00:04:05.373Z,38.20
2019-01-22T00:05:05.383Z,37.80
2019-01-22T00:06:05.387Z,37.70
2019-01-22T00:07:05.398Z,35.70
2019-01-22T00:08:05.406Z,35.40
2019-01-22T00:09:05.409Z,38.00
2019-01-22T00:10:05.434Z,38.50
2019-01-22T00:11:05.423Z,37.90
2019-01-22T00:12:05.447Z,38.80
2019-01-22T00:13:05.441Z,38.60
2019-01-22T00:14:05.453Z,40.40
2019-01-22T00:15:05.454Z,38.80
2019-01-22T00:16:05.462Z,35.40
2019-01-22T00:17:05.467Z,38.80
2019-01-22T00:18:05.479Z,37.30
2019-01-22T00:19:05.485Z,38.80
2019-01-22T00:20:05.491Z,37.20
2019-01-22T00:21:05.495Z,37.20
2019-01-22T00:22:05.511Z,35.90
2019-01-22T00:23:05.517Z,38.00
2019-01-22T00:24:05.521Z,38.20
2019-01-22T00:25:05.525Z,39.70
2019-01-22T00:26:05.533Z,37.10
2019-01-22T00:27:05.540Z,36.00
2019-01-22T00:28:05.544Z,38.10
2019-01-22T00:29:05.552Z,34.70
2019-01-22T00:30:05.558Z,33.80
2019-01-22T00:31:05.565Z,36.10
2019-01-22T00:32:05.574Z,35.50
2019-01-22T00:33:05.579Z,35.20
2019-01-22T00:34:05.588Z,35.50
2019-01-22T00:35:05.597Z,36.00
2019-01-22T00:36:05.600Z,36.00
2019-01-22T00:37:05.611Z,36.60
2019-01-22T00:38:05.618Z,36.50
2019-01-22T00:39:05.628Z,33.30
2019-01-22T00:40:05.630Z,34.70
2019-01-22T00:41:05.642Z,39.80
2019-01-22T00:42:05.648Z,37.60
2019-01-22T00:43:05.657Z,36.40
2019-01-22T00:44:05.659Z,34.80
2019-01-22T00:45:05.665Z,34.20
2019-01-22T00:46:05.676Z,36.10
2019-01-22T00:47:05.680Z,36.90
2019-01-22T00:48:05.687Z,35.70
2019-01-22T00:49:05.692Z,35.80
2019-01-22T00:50:05.701Z,36.60
2019-01-22T00:51:05.708Z,34.10
2019-01-22T00:52:05.714Z,33.50
2019-01-22T00:53:09.905Z,33.90
2019-01-22T00:54:05.726Z,34.00
2019-01-22T00:55:05.739Z,34.70
2019-01-22T00:56:05.749Z,31.80
2019-01-22T00:57:05.752Z,32.60
2019-01-22T00:58:05.756Z,31.70
2019-01-22T00:59:05.761Z,34.90
2019-01-22T01:00:05.770Z,34.90
2019-01-22T01:01:05.776Z,33.70
2019-01-22T01:02:05.783Z,37.40
2019-01-22T01:03:05.789Z,37.30
2019-01-22T01:04:05.795Z,34.10
2019-01-22T01:05:05.804Z,37.10
2019-01-22T01:06:05.808Z,35.70
2019-01-22T01:07:05.817Z,35.00
2019-01-22T01:08:05.825Z,37.20
2019-01-22T01:09:05.832Z,37.50
2019-01-22T01:10:05.836Z,40.20
2019-01-22T01:11:05.843Z,36.00
2019-01-22T01:12:05.854Z,35.10
2019-01-22T01:13:05.860Z,36.50
2019-01-22T01:14:05.881Z,37.20
2019-01-22T01:15:05.875Z,37.30
2019-01-22T01:16:05.881Z,34.90
2019-01-22T01:17:05.887Z,35.60
2019-01-22T01:18:05.895Z,40.70
2019-01-22T01:19:05.903Z,36.10
2019-01-22T01:20:05.904Z,36.90
2019-01-22T01:21:05.912Z,37.60
2019-01-22T01:22:05.920Z,35.70
2019-01-22T01:23:05.925Z,36.40
2019-01-22T01:24:05.935Z,36.50
2019-01-22T01:25:05.943Z,36.80
2019-01-22T01:26:05.946Z,34.30
2019-01-22T01:27:05.956Z,34.90
2019-01-22T01:28:05.958Z,34.60
2019-01-22T01:29:05.969Z,35.50
2019-01-22T01:30:05.976Z,34.10
2019-01-22T01:31:05.990Z,37.10
2019-01-22T01:32:05.990Z,35.20
2019-01-22T01:33:05.998Z,37.20
2019-01-22T01:34:06.002Z,35.30
2019-01-22T01:35:06.013Z,36.30
2019-01-22T01:36:06.015Z,35.60
2019-01-22T01:37:06.020Z,35.60
2019-01-22T01:38:06.030Z,38.80
2019-01-22T01:39:06.035Z,38.20
2019-01-22T01:40:06.043Z,38.30
2019-01-22T01:41:06.048Z,35.10
2019-01-22T01:42:06.054Z,34.90
2019-01-22T01:43:06.066Z,35.80
2019-01-22T01:44:06.067Z,35.60
2019-01-22T01:45:06.077Z,34.80
2019-01-22T01:46:06.084Z,38.00
2019-01-22T01:47:06.096Z,32.20
2019-01-22T01:48:06.100Z,36.40
2019-01-22T01:49:06.106Z,37.20
2019-01-22T01:50:06.109Z,33.70
2019-01-22T01:51:06.117Z,34.90
2019-01-22T01:52:06.125Z,38.10
2019-01-22T01:53:06.134Z,34.90
2019-01-22T01:54:06.140Z,35.80
2019-01-22T01:55:06.144Z,38.80
2019-01-22T01:56:06.157Z,36.30
2019-01-22T01:57:06.156Z,35.50
2019-01-22T01:58:06.162Z,35.90
2019-01-22T01:59:06.169Z,35.00
2019-01-22T02:00:06.177Z,36.30
2019-01-22T02:01:06.185Z,34.40
2019-01-22T02:02:06.292Z,36.50
2019-01-22T02:03:06.199Z,37.00
2019-01-22T02:04:06.204Z,36.30
2019-01-22T02:05:06.211Z,37.90
2019-01-22T02:06:06.215Z,34.60
2019-01-22T02:07:06.224Z,37.60
2019-01-22T02:08:06.227Z,34.90
2019-01-22T02:09:06.241Z,35.80
2019-01-22T02:10:06.246Z,39.10
2019-01-22T02:11:06.251Z,37.70
2019-01-22T02:12:06.255Z,37.20
2019-01-22T02:13:06.276Z,37.50
2019-01-22T02:14:06.267Z,38.80
2019-01-22T02:15:06.276Z,37.60
2019-01-22T02:16:06.297Z,35.70
2019-01-22T02:17:06.291Z,37.80
2019-01-22T02:18:06.295Z,36.30
2019-01-22T02:20:06.311Z,38.00
2019-01-22T02:21:06.320Z,36.50
2019-01-22T02:22:06.424Z,39.30
2019-01-22T02:23:06.331Z,36.20
2019-01-22T02:24:06.341Z,38.70
2019-01-22T02:25:06.341Z,36.10
2019-01-22T02:26:06.352Z,41.20
2019-01-22T02:27:06.357Z,37.70
2019-01-22T02:28:06.363Z,37.90
2019-01-22T02:29:06.366Z,38.70
2019-01-22T02:30:06.376Z,37.90
2019-01-22T02:31:06.384Z,35.70
2019-01-22T02:32:06.390Z,35.50
2019-01-22T02:33:06.393Z,38.50
2019-01-22T02:34:06.401Z,34.70
2019-01-22T02:35:06.409Z,37.70
2019-01-22T02:36:06.413Z,36.70
2019-01-22T02:37:06.424Z,38.70
2019-01-22T02:38:06.435Z,37.60
2019-01-22T02:39:06.434Z,40.70
2019-01-22T02:40:06.445Z,38.40
2019-01-22T02:41:06.444Z,38.40
2019-01-22T02:42:06.451Z,37.30
2019-01-22T02:43:06.464Z,37.00
2019-01-22T02:44:06.467Z,37.00
2019-01-22T02:45:06.477Z,36.60
2019-01-22T02:46:06.689Z,37.90
2019-01-22T02:47:06.488Z,36.80
2019-01-22T02:48:06.532Z,34.30
2019-01-22T02:49:06.500Z,37.70
2019-01-22T02:50:06.870Z,37.40
2019-01-22T02:51:06.535Z,38.30
2019-01-22T02:52:06.516Z,36.10
2019-01-22T02:53:06.526Z,37.90
2019-01-22T02:54:06.569Z,39.40
2019-01-22T02:55:06.543Z,37.50
2019-01-22T02:56:06.546Z,36.40
2019-01-22T02:57:06.558Z,36.80
2019-01-22T02:58:06.560Z,38.50
2019-01-22T02:59:06.571Z,36.50
2019-01-22T03:00:06.567Z,38.90
2019-01-22T03:01:06.575Z,36.50
2019-01-22T03:02:06.586Z,36.60
2019-01-22T03:03:06.592Z,34.80
2019-01-22T03:04:06.632Z,38.80
2019-01-22T03:05:06.784Z,37.10
2019-01-22T03:06:07.002Z,37.40
2019-01-22T03:07:06.756Z,35.10
2019-01-22T03:08:06.626Z,36.30
2019-01-22T03:09:06.629Z,38.30
2019-01-22T03:10:06.634Z,34.60
2019-01-22T03:11:06.641Z,37.20
2019-01-22T03:12:06.649Z,37.40
2019-01-22T03:13:06.650Z,37.20
2019-01-22T03:14:06.658Z,39.10
2019-01-22T03:15:06.669Z,35.80
2019-01-22T03:16:06.673Z,35.90
2019-01-22T03:17:06.676Z,36.40
2019-01-22T03:18:06.686Z,34.60
2019-01-22T03:19:06.946Z,36.50
2019-01-22T03:20:06.706Z,32.80
2019-01-22T03:21:06.702Z,35.40
2019-01-22T03:22:06.712Z,35.70
2019-01-22T03:23:06.719Z,37.00
2019-01-22T03:24:06.724Z,35.20
2019-01-22T03:25:06.728Z,36.00
2019-01-22T03:26:06.736Z,34.60
2019-01-22T03:27:06.739Z,35.20
2019-01-22T03:28:06.750Z,36.60
2019-01-22T03:29:06.753Z,38.00
2019-01-22T03:30:06.764Z,35.00
2019-01-22T03:31:06.770Z,36.60
2019-01-22T03:32:06.773Z,36.60
2019-01-22T03:33:06.782Z,35.30
2019-01-22T03:34:06.791Z,35.90
2019-01-22T03:35:06.794Z,34.60
2019-01-22T03:36:06.795Z,35.70
2019-01-22T03:37:06.802Z,37.10
2019-01-22T03:38:06.811Z,33.60
2019-01-22T03:39:06.819Z,34.20
2019-01-22T03:40:06.824Z,34.80
2019-01-22T03:41:06.829Z,34.30
2019-01-22T03:42:06.838Z,35.90
2019-01-22T03:43:06.844Z,36.00
2019-01-22T03:44:06.848Z,35.10
2019-01-22T03:45:06.852Z,37.10
2019-01-22T03:46:06.859Z,34.60
2019-01-22T03:47:06.892Z,36.50
2019-01-22T03:48:06.893Z,36.20
2019-01-22T03:49:06.883Z,36.20
2019-01-22T03:50:06.890Z,33.60
2019-01-22T03:51:06.894Z,35.50
2019-01-22T03:52:06.896Z,35.90
2019-01-22T03:53:06.905Z,34.10
2019-01-22T03:54:06.911Z,33.10
2019-01-22T03:55:06.918Z,33.90
2019-01-22T03:56:06.921Z,34.10
2019-01-22T03:57:06.927Z,33.40
2019-01-22T03:58:06.932Z,34.00
2019-01-22T03:59:06.940Z,32.00
2019-01-22T04:00:06.952Z,32.50
2019-01-22T04:01:06.957Z,35.10
2019-01-22T04:02:06.959Z,33.80
2019-01-22T04:03:06.969Z,35.50
2019-01-22T04:04:06.972Z,33.90
2019-01-22T04:05:06.977Z,33.90
2019-01-22T04:06:06.985Z,32.20
2019-01-22T04:07:06.991Z,31.30
2019-01-22T04:08:06.997Z,31.60
2019-01-22T04:09:07.003Z,33.30
2019-01-22T04:10:07.009Z,33.20
2019-01-22T04:11:07.018Z,32.30
2019-01-22T04:12:07.022Z,35.70
2019-01-22T04:13:07.029Z,36.40
2019-01-22T04:14:07.036Z,34.70
2019-01-22T04:15:07.042Z,31.80
2019-01-22T04:16:07.048Z,32.70
2019-01-22T04:17:07.054Z,32.10
2019-01-22T04:18:07.063Z,31.10
2019-01-22T04:19:07.065Z,31.80
2019-01-22T04:20:07.073Z,29.30
2019-01-22T04:21:07.079Z,33.50
2019-01-22T04:22:07.087Z,31.50
2019-01-22T04:23:07.093Z,30.60
2019-01-22T04:24:07.124Z,30.50
2019-01-22T04:25:07.106Z,30.60
2019-01-22T04:26:07.113Z,29.40
2019-01-22T04:27:07.121Z,30.00
2019-01-22T04:28:07.126Z,31.30
2019-01-22T04:29:07.130Z,28.20
2019-01-22T04:30:07.135Z,29.50
2019-01-22T04:31:07.143Z,31.00
2019-01-22T04:32:07.149Z,29.90
2019-01-22T04:33:07.154Z,29.00
2019-01-22T04:34:07.162Z,31.40
2019-01-22T04:35:07.179Z,28.20
2019-01-22T04:36:07.173Z,29.90
2019-01-22T04:37:07.177Z,30.10
2019-01-22T04:38:07.300Z,30.10
2019-01-22T04:39:07.190Z,28.80
2019-01-22T04:40:07.200Z,28.30
2019-01-22T04:41:07.205Z,26.90
2019-01-22T04:42:07.217Z,27.00
2019-01-22T04:43:07.218Z,27.40
2019-01-22T04:44:07.225Z,28.30
2019-01-22T04:45:07.226Z,29.00
2019-01-22T04:46:07.234Z,29.20
2019-01-22T04:47:07.241Z,25.80
2019-01-22T04:48:07.260Z,28.30
2019-01-22T04:49:07.255Z,27.90
2019-01-22T04:50:07.259Z,29.10
2019-01-22T04:51:07.274Z,26.80
2019-01-22T04:52:07.269Z,28.50
2019-01-22T04:53:07.287Z,27.70
2019-01-22T04:54:09.730Z,26.20
2019-01-22T04:55:07.292Z,26.70
2019-01-22T04:56:07.296Z,27.10
2019-01-22T04:57:07.301Z,26.40
2019-01-22T04:58:07.312Z,27.00
2019-01-22T04:59:07.313Z,27.90
2019-01-22T05:00:07.323Z,27.10
2019-01-22T05:01:07.329Z,28.20
2019-01-22T05:02:07.331Z,26.30
2019-01-22T05:03:07.337Z,27.80
2019-01-22T05:04:07.343Z,28.10
2019-01-22T05:05:07.367Z,28.40
2019-01-22T05:06:07.355Z,29.30
2019-01-22T05:07:07.364Z,28.20
2019-01-22T05:08:07.368Z,25.50
2019-01-22T05:09:07.374Z,25.90
2019-01-22T05:10:08.364Z,29.00
2019-01-22T05:11:07.388Z,27.80
2019-01-22T05:12:07.404Z,27.60
2019-01-22T05:13:07.400Z,28.00
2019-01-22T05:14:07.412Z,26.60
2019-01-22T05:15:07.418Z,29.60
2019-01-22T05:16:07.420Z,24.30
2019-01-22T05:17:07.418Z,29.80
2019-01-22T05:18:07.426Z,25.90
2019-01-22T05:19:07.434Z,26.70
2019-01-22T05:20:07.438Z,29.10
2019-01-22T05:21:07.448Z,26.70
2019-01-22T05:22:07.466Z,25.90
2019-01-22T05:23:07.686Z,26.30
2019-01-22T05:24:07.465Z,26.20
2019-01-22T05:25:07.472Z,26.30
2019-01-22T05:26:07.476Z,26.70
2019-01-22T05:27:07.484Z,29.60
2019-01-22T05:28:07.490Z,26.90
2019-01-22T05:29:07.493Z,27.10
2019-01-22T05:30:07.502Z,29.60
2019-01-22T05:31:07.511Z,28.00
2019-01-22T05:32:07.538Z,27.70
2019-01-22T05:33:07.520Z,28.70
2019-01-22T05:34:07.526Z,30.30
2019-01-22T05:35:07.530Z,26.60
2019-01-22T05:36:07.539Z,27.30
2019-01-22T05:37:07.626Z,30.40
2019-01-22T05:38:07.547Z,28.00
2019-01-22T05:39:07.570Z,27.00
2019-01-22T05:40:07.564Z,29.80
2019-01-22T05:41:07.568Z,29.20
2019-01-22T05:42:07.585Z,27.50
2019-01-22T05:43:07.590Z,28.50
2019-01-22T05:44:07.587Z,27.60
2019-01-22T05:45:07.594Z,27.50
2019-01-22T05:46:07.601Z,27.70
2019-01-22T05:47:07.624Z,29.60
2019-01-22T05:48:13.253Z,28.40
2019-01-22T05:49:07.616Z,26.60
2019-01-22T05:50:07.628Z,27.60
2019-01-22T05:51:07.630Z,28.70
2019-01-22T05:52:07.642Z,27.70
2019-01-22T05:53:07.666Z,28.10
2019-01-22T05:54:07.677Z,27.90
2019-01-22T05:55:07.671Z,27.50
2019-01-22T05:56:07.699Z,26.80
2019-01-22T05:57:07.699Z,27.70
2019-01-22T05:58:07.674Z,26.90
2019-01-22T05:59:07.677Z,26.70
2019-01-22T06:00:07.682Z,28.10
2019-01-22T06:01:07.700Z,27.90
2019-01-22T06:02:07.698Z,28.20
2019-01-22T06:03:07.706Z,27.50
2019-01-22T06:04:07.717Z,27.30
2019-01-22T06:05:07.726Z,26.90
2019-01-22T06:06:07.718Z,26.90
2019-01-22T06:07:07.725Z,26.80
2019-01-22T06:08:07.734Z,27.20
2019-01-22T06:09:07.735Z,26.30
2019-01-22T06:10:07.753Z,26.90
2019-01-22T06:11:07.752Z,25.30
2019-01-22T06:12:07.760Z,26.00
2019-01-22T06:13:07.821Z,27.50
2019-01-22T06:14:07.772Z,28.60
2019-01-22T06:15:07.781Z,28.00
2019-01-22T06:16:07.838Z,27.10
2019-01-22T06:17:07.789Z,27.60
2019-01-22T06:18:07.793Z,28.40
2019-01-22T06:19:07.798Z,28.20
2019-01-22T06:20:07.801Z,26.50
2019-01-22T06:21:07.809Z,27.60
2019-01-22T06:22:07.817Z,27.30
2019-01-22T06:23:07.842Z,27.40
2019-01-22T06:24:07.831Z,27.10
2019-01-22T06:25:07.833Z,27.60
2019-01-22T06:26:07.840Z,25.20
2019-01-22T06:27:07.851Z,26.00
2019-01-22T06:28:07.855Z,27.50
2019-01-22T06:29:07.860Z,26.90
2019-01-22T06:30:07.865Z,26.50
2019-01-22T06:31:07.877Z,27.90
2019-01-22T06:32:07.872Z,27.90
2019-01-22T06:33:07.879Z,28.50
2019-01-22T06:34:07.884Z,28.50
2019-01-22T06:35:07.898Z,26.40
2019-01-22T06:36:07.898Z,28.60
2019-01-22T06:37:07.903Z,27.10
2019-01-22T06:38:07.917Z,28.40
2019-01-22T06:39:07.915Z,27.40
2019-01-22T06:40:07.925Z,27.40
2019-01-22T06:41:07.924Z,27.10
2019-01-22T06:42:07.933Z,24.70
2019-01-22T06:43:07.939Z,26.90
2019-01-22T06:44:07.942Z,27.40
2019-01-22T06:45:07.943Z,25.70
2019-01-22T06:46:07.949Z,29.20
2019-01-22T06:47:07.955Z,30.30
2019-01-22T06:48:07.960Z,36.40
2019-01-22T06:49:10.371Z,26.90
2019-01-22T06:50:07.974Z,29.00
2019-01-22T06:51:07.977Z,33.40
2019-01-22T06:52:07.984Z,29.50
2019-01-22T06:53:08.289Z,29.20
2019-01-22T06:54:07.994Z,28.70
2019-01-22T06:55:08.002Z,27.10
2019-01-22T06:56:08.009Z,25.50
2019-01-22T06:57:08.015Z,27.10
2019-01-22T06:58:08.071Z,25.70
2019-01-22T06:59:08.027Z,28.00
2019-01-22T07:00:08.033Z,24.70
2019-01-22T07:01:08.036Z,24.70
2019-01-22T07:02:08.044Z,25.70
2019-01-22T07:03:08.086Z,24.20
2019-01-22T07:04:08.055Z,24.10
2019-01-22T07:05:08.065Z,27.00
2019-01-22T07:06:08.066Z,25.90
2019-01-22T07:07:08.074Z,27.30
2019-01-22T07:08:08.080Z,25.90
2019-01-22T07:09:08.096Z,23.90
2019-01-22T07:10:08.096Z,24.40
2019-01-22T07:11:08.099Z,25.40
2019-01-22T07:12:08.115Z,26.40
2019-01-22T07:13:08.110Z,25.20
2019-01-22T07:14:08.113Z,27.50
2019-01-22T07:15:08.123Z,24.80
2019-01-22T07:16:08.126Z,26.60
2019-01-22T07:17:08.131Z,23.60
2019-01-22T07:18:08.137Z,25.70
2019-01-22T07:19:08.144Z,25.40
2019-01-22T07:20:08.151Z,24.80
2019-01-22T07:21:08.153Z,27.10
2019-01-22T07:22:08.160Z,27.10
2019-01-22T07:23:08.446Z,27.90
2019-01-22T07:24:08.178Z,26.20
2019-01-22T07:25:08.195Z,26.40
2019-01-22T07:26:08.186Z,24.40
2019-01-22T07:27:08.238Z,23.30
2019-01-22T07:28:08.216Z,27.70
2019-01-22T07:29:08.206Z,25.00
2019-01-22T07:30:08.210Z,26.10
2019-01-22T07:31:08.221Z,23.40
2019-01-22T07:32:08.227Z,23.60
2019-01-22T07:33:08.237Z,25.60
2019-01-22T07:34:08.247Z,24.00
2019-01-22T07:35:08.239Z,25.20
2019-01-22T07:36:08.244Z,25.10
2019-01-22T07:37:08.252Z,27.90
2019-01-22T07:38:08.281Z,25.60
2019-01-22T07:39:08.324Z,26.30
2019-01-22T07:40:08.273Z,25.60
2019-01-22T07:41:08.284Z,26.80
2019-01-22T07:42:08.280Z,26.90
2019-01-22T07:43:08.469Z,24.70
2019-01-22T07:44:08.290Z,25.80
2019-01-22T07:45:08.308Z,28.40
2019-01-22T07:46:08.302Z,25.70
2019-01-22T07:47:08.312Z,24.30
2019-01-22T07:48:08.317Z,23.70
2019-01-22T07:49:08.326Z,24.50
2019-01-22T07:50:08.331Z,25.00
2019-01-22T07:51:08.335Z,25.50
2019-01-22T07:52:08.338Z,26.00
2019-01-22T07:53:08.349Z,26.00
2019-01-22T07:54:08.355Z,26.10
2019-01-22T07:55:08.382Z,27.60
2019-01-22T07:56:08.366Z,24.30
2019-01-22T07:57:08.371Z,24.60
2019-01-22T07:58:08.378Z,26.30
2019-01-22T07:59:08.379Z,25.60
2019-01-22T08:00:08.403Z,25.90
2019-01-22T08:01:08.395Z,26.90
2019-01-22T08:02:08.421Z,25.40
2019-01-22T08:03:08.402Z,25.90
2019-01-22T08:04:08.409Z,25.20
2019-01-22T08:05:08.418Z,23.50
2019-01-22T08:06:08.471Z,24.70
2019-01-22T08:07:08.433Z,26.30
2019-01-22T08:08:08.435Z,22.20
2019-01-22T08:09:08.449Z,24.10
2019-01-22T08:10:08.446Z,24.20
2019-01-22T08:11:08.668Z,25.30
2019-01-22T08:13:08.474Z,25.20
2019-01-22T08:14:08.470Z,23.00
2019-01-22T08:15:08.476Z,24.10
2019-01-22T08:16:09.123Z,23.20
2019-01-22T08:18:08.805Z,26.10
2019-01-22T08:19:08.504Z,23.20
2019-01-22T08:20:08.510Z,28.90
2019-01-22T08:21:08.515Z,25.50
2019-01-22T08:22:08.520Z,30.50
2019-01-22T08:23:08.542Z,27.70
2019-01-22T08:24:08.536Z,26.90
2019-01-22T08:25:08.543Z,31.60
2019-01-22T08:26:08.702Z,29.80
2019-01-22T08:27:08.552Z,30.60
2019-01-22T08:28:08.562Z,30.50
2019-01-22T08:29:08.578Z,37.00
2019-01-22T08:30:08.570Z,31.30
2019-01-22T08:31:08.581Z,31.00
2019-01-22T08:32:08.585Z,31.20
2019-01-22T08:33:08.589Z,26.20
2019-01-22T08:34:08.619Z,25.70
2019-01-22T08:35:08.608Z,25.10
2019-01-22T08:36:08.611Z,28.80
2019-01-22T08:37:08.619Z,29.70
2019-01-22T08:38:08.622Z,29.00
2019-01-22T08:39:08.808Z,25.00
2019-01-22T08:40:08.750Z,26.40
2019-01-22T08:41:08.637Z,27.10
2019-01-22T08:42:08.649Z,27.80
2019-01-22T08:43:08.650Z,28.40
2019-01-22T08:44:08.655Z,27.10
2019-01-22T08:45:08.662Z,27.60
2019-01-22T08:46:08.673Z,30.60
2019-01-22T08:47:08.678Z,29.50
2019-01-22T08:48:08.684Z,28.20
2019-01-22T08:49:08.694Z,28.60
2019-01-22T08:50:08.695Z,27.60
2019-01-22T08:51:08.711Z,25.00
2019-01-22T08:52:08.710Z,26.70
2019-01-22T08:53:08.725Z,25.30
2019-01-22T08:54:08.814Z,24.10
2019-01-22T08:55:08.805Z,26.40
2019-01-22T08:56:08.741Z,27.20
2019-01-22T08:57:08.752Z,27.10
2019-01-22T08:58:09.017Z,24.50
2019-01-22T08:59:08.757Z,23.30
2019-01-22T09:00:08.765Z,24.30
2019-01-22T09:01:09.067Z,23.90
2019-01-22T09:02:08.771Z,23.00
2019-01-22T09:03:08.783Z,23.60
2019-01-22T09:04:08.790Z,23.40
2019-01-22T09:05:08.799Z,22.90
2019-01-22T09:06:08.803Z,24.00
2019-01-22T09:07:08.818Z,24.20
2019-01-22T09:08:09.909Z,26.30
2019-01-22T09:09:08.831Z,23.70
2019-01-22T09:10:08.830Z,22.30
2019-01-22T09:11:08.833Z,22.50
2019-01-22T09:12:10.144Z,24.00
2019-01-22T09:13:08.847Z,24.90
2019-01-22T09:14:08.885Z,25.10
2019-01-22T09:15:08.866Z,21.30
2019-01-22T09:16:08.865Z,23.80
2019-01-22T09:17:08.878Z,23.50
2019-01-22T09:18:08.881Z,24.20
2019-01-22T09:19:08.899Z,24.70
2019-01-22T09:20:08.896Z,23.60
2019-01-22T09:21:08.912Z,23.80
2019-01-22T09:22:08.913Z,23.40
2019-01-22T09:23:08.926Z,23.90
2019-01-22T09:24:08.921Z,24.60
2019-01-22T09:25:14.691Z,23.60
2019-01-22T09:26:08.935Z,22.60
2019-01-22T09:27:08.960Z,24.80
2019-01-22T09:28:08.958Z,25.20
2019-01-22T09:29:08.955Z,24.70
2019-01-22T09:30:09.005Z,23.60
2019-01-22T09:31:08.971Z,23.90
2019-01-22T09:32:08.977Z,22.90
2019-01-22T09:33:11.456Z,24.30
2019-01-22T09:34:10.132Z,23.30
2019-01-22T09:35:10.610Z,23.30
2019-01-22T09:36:09.179Z,26.40
2019-01-22T09:37:09.021Z,35.10
2019-01-22T09:38:09.050Z,29.30
2019-01-22T09:39:09.025Z,30.90
2019-01-22T09:40:09.032Z,27.90
2019-01-22T09:41:09.040Z,28.00
2019-01-22T09:42:09.044Z,30.70
2019-01-22T09:43:09.053Z,29.70
2019-01-22T09:44:09.070Z,52.80
2019-01-22T09:45:09.068Z,41.50
2019-01-22T09:46:09.072Z,30.30
2019-01-22T09:47:09.084Z,37.40
2019-01-22T09:48:10.027Z,37.90
2019-01-22T09:49:09.479Z,30.10
2019-01-22T09:50:11.278Z,37.10
2019-01-22T09:51:09.109Z,48.70
2019-01-22T09:52:09.116Z,41.70
2019-01-22T09:53:09.124Z,42.80
2019-01-22T09:54:09.478Z,43.00
2019-01-22T09:55:09.146Z,42.70
2019-01-22T09:56:09.145Z,43.90
2019-01-22T09:57:09.162Z,26.10
2019-01-22T09:58:09.157Z,26.60
2019-01-22T09:59:09.170Z,30.00
2019-01-22T10:00:09.173Z,28.50
2019-01-22T10:01:09.182Z,28.50
2019-01-22T10:02:09.193Z,28.90
2019-01-22T10:03:09.198Z,26.40
2019-01-22T10:04:09.203Z,28.30
2019-01-22T10:05:09.236Z,23.60
2019-01-22T10:06:09.239Z,26.70
2019-01-22T10:07:09.242Z,23.30
2019-01-22T10:08:09.251Z,26.30
2019-01-22T10:09:09.237Z,21.90
2019-01-22T10:10:09.264Z,23.70
2019-01-22T10:11:09.255Z,23.10
2019-01-22T10:12:09.263Z,24.90
2019-01-22T10:13:09.273Z,24.00
2019-01-22T10:14:09.284Z,23.20
2019-01-22T10:15:09.291Z,24.40
2019-01-22T10:16:09.319Z,24.20
2019-01-22T10:17:09.302Z,24.50
2019-01-22T10:18:09.308Z,23.10
2019-01-22T10:19:09.324Z,22.90
2019-01-22T10:20:09.397Z,24.30
2019-01-22T10:21:09.413Z,26.90
2019-01-22T10:22:09.337Z,23.00
2019-01-22T10:23:09.347Z,23.90
2019-01-22T10:24:09.357Z,22.40
2019-01-22T10:25:09.360Z,21.40
2019-01-22T10:26:09.372Z,22.40
2019-01-22T10:27:09.386Z,22.50
2019-01-22T10:28:09.382Z,23.60
2019-01-22T10:29:09.486Z,24.10
2019-01-22T10:30:09.400Z,24.00
2019-01-22T10:31:09.462Z,24.20
2019-01-22T10:32:09.468Z,23.30
2019-01-22T10:33:09.424Z,22.10
2019-01-22T10:34:09.426Z,23.00
2019-01-22T10:35:09.434Z,22.60
2019-01-22T10:36:09.443Z,24.30
2019-01-22T10:37:09.463Z,22.10
2019-01-22T10:38:09.481Z,21.40
2019-01-22T10:39:09.467Z,21.80
2019-01-22T10:40:11.894Z,20.70
2019-01-22T10:41:09.478Z,22.30
2019-01-22T10:42:09.488Z,21.10
2019-01-22T10:43:09.651Z,23.00
2019-01-22T10:44:09.513Z,21.90
2019-01-22T10:45:09.509Z,22.20
2019-01-22T10:46:09.521Z,20.80
2019-01-22T10:47:09.542Z,20.60
2019-01-22T10:48:09.600Z,21.60
2019-01-22T10:49:09.570Z,21.00
2019-01-22T10:50:09.551Z,21.50
2019-01-22T10:51:09.869Z,22.10
2019-01-22T10:52:10.513Z,22.90
2019-01-22T10:53:09.715Z,22.00
2019-01-22T10:54:09.581Z,19.80
2019-01-22T10:55:09.653Z,22.80
2019-01-22T10:56:09.599Z,21.70
2019-01-22T10:57:09.613Z,22.80
2019-01-22T10:58:09.615Z,22.90
2019-01-22T10:59:09.622Z,22.50
2019-01-22T11:00:09.633Z,21.60
2019-01-22T11:01:09.939Z,20.40
2019-01-22T11:02:09.687Z,21.00
2019-01-22T11:03:09.712Z,18.50
2019-01-22T11:04:10.169Z,17.70
2019-01-22T11:05:09.671Z,22.50
2019-01-22T11:06:09.687Z,21.30
2019-01-22T11:07:09.685Z,18.80
2019-01-22T11:08:09.716Z,20.10
2019-01-22T11:09:09.707Z,22.30
2019-01-22T11:10:09.720Z,19.10
2019-01-22T11:11:09.753Z,18.40
2019-01-22T11:12:09.732Z,22.70
2019-01-22T11:13:09.740Z,18.80
2019-01-22T11:14:09.752Z,19.70
2019-01-22T11:15:09.826Z,20.00
2019-01-22T11:16:09.759Z,20.10
2019-01-22T11:17:09.765Z,19.40
2019-01-22T11:18:09.775Z,19.60
2019-01-22T11:19:09.797Z,19.20
2019-01-22T11:20:09.827Z,19.50
2019-01-22T11:21:09.803Z,19.90
2019-01-22T11:22:09.810Z,21.20
2019-01-22T11:23:09.826Z,18.70
2019-01-22T11:24:09.861Z,59.70
2019-01-22T11:25:09.841Z,19.60
2019-01-22T11:26:09.858Z,18.00
2019-01-22T11:27:09.864Z,19.30
2019-01-22T11:28:09.863Z,19.10
2019-01-22T11:29:09.893Z,18.00
2019-01-22T11:30:09.880Z,20.80
2019-01-22T11:31:09.891Z,18.20
2019-01-22T11:32:09.914Z,21.30
2019-01-22T11:33:09.903Z,20.70
2019-01-22T11:34:10.216Z,20.10
2019-01-22T11:35:09.937Z,19.40
2019-01-22T11:36:09.979Z,18.00
2019-01-22T11:37:09.946Z,17.70
2019-01-22T11:38:12.647Z,18.30
2019-01-22T11:39:09.961Z,19.50
2019-01-22T11:40:09.961Z,16.90
2019-01-22T11:41:09.992Z,16.70
2019-01-22T11:42:09.995Z,19.50
2019-01-22T11:43:09.989Z,16.30
2019-01-22T11:44:09.998Z,18.70
2019-01-22T11:45:10.009Z,17.20
2019-01-22T11:46:10.017Z,17.50
2019-01-22T11:47:10.037Z,17.90
2019-01-22T11:48:10.047Z,17.10
2019-01-22T11:49:10.573Z,22.20
2019-01-22T11:50:10.287Z,20.70
2019-01-22T11:52:10.275Z,17.00
2019-01-22T11:53:10.249Z,19.10
2019-01-22T11:54:10.286Z,21.20
2019-01-22T11:55:10.349Z,17.90
2019-01-22T11:56:10.318Z,20.00
2019-01-22T11:57:10.112Z,19.30
2019-01-22T11:58:10.247Z,18.70
2019-01-22T11:59:10.139Z,16.40
2019-01-22T12:00:10.166Z,17.30
2019-01-22T12:01:10.153Z,19.30
2019-01-22T12:02:10.149Z,22.10
2019-01-22T12:03:10.173Z,17.00
2019-01-22T12:04:10.175Z,16.30
2019-01-22T12:05:10.174Z,17.50
2019-01-22T12:06:10.188Z,15.50
2019-01-22T12:07:10.452Z,20.20
2019-01-22T12:08:10.214Z,18.80
2019-01-22T12:09:10.209Z,18.70
2019-01-22T12:10:10.225Z,16.80
2019-01-22T12:11:10.232Z,19.10
2019-01-22T12:12:10.547Z,15.60
2019-01-22T12:13:10.248Z,19.10
2019-01-22T12:14:10.254Z,16.60
2019-01-22T12:15:10.269Z,18.70
2019-01-22T12:16:10.275Z,17.70
2019-01-22T12:17:10.289Z,16.40
2019-01-22T12:18:10.290Z,18.00
2019-01-22T12:19:10.301Z,16.50
2019-01-22T12:20:10.310Z,22.30
2019-01-22T12:21:10.318Z,18.00
2019-01-22T12:22:10.333Z,17.60
2019-01-22T12:23:10.347Z,14.50
2019-01-22T12:24:10.345Z,16.80
2019-01-22T12:25:10.363Z,19.70
2019-01-22T12:26:10.368Z,16.10
2019-01-22T12:27:10.378Z,14.90
2019-01-22T12:28:10.430Z,18.90
2019-01-22T12:29:10.441Z,15.00
2019-01-22T12:30:10.454Z,16.80
2019-01-22T12:31:10.429Z,17.30
2019-01-22T12:32:10.470Z,16.10
2019-01-22T12:33:10.434Z,17.50
2019-01-22T12:34:10.436Z,21.00
2019-01-22T12:35:10.487Z,17.10
2019-01-22T12:36:10.458Z,16.20
2019-01-22T12:37:10.484Z,17.70
2019-01-22T12:38:10.475Z,16.60
2019-01-22T12:39:10.503Z,17.80
2019-01-22T12:40:10.496Z,14.30
2019-01-22T12:41:10.510Z,14.60
2019-01-22T12:42:10.515Z,14.60
2019-01-22T12:43:10.524Z,17.50
2019-01-22T12:44:10.529Z,17.40
2019-01-22T12:45:10.542Z,17.20
2019-01-22T12:46:10.549Z,18.40
2019-01-22T12:47:10.559Z,16.60
2019-01-22T12:48:10.565Z,14.10
2019-01-22T12:49:10.593Z,15.60
2019-01-22T12:50:10.588Z,14.20
2019-01-22T12:51:10.606Z,14.50
2019-01-22T12:52:10.606Z,16.90
2019-01-22T12:53:10.614Z,14.40
2019-01-22T12:54:11.677Z,14.30
2019-01-22T12:55:10.642Z,16.20
2019-01-22T12:56:10.647Z,17.70